createdAt,value
2022-08-24T00:04:10.411Z,101661.31
2022-08-24T00:09:36.199Z,101651.25
2022-08-24T00:14:57.948Z,101670.81
2022-08-24T00:20:19.656Z,101669.13
2022-08-24T00:25:42.425Z,101661.84
2022-08-24T00:31:05.361Z,101659.88
2022-08-24T00:36:30.158Z,101656.25
2022-08-24T00:41:52.590Z,101660.16
2022-08-24T00:47:43.129Z,101665.75
2022-08-24T00:53:20.244Z,101662.09
2022-08-24T00:58:48.098Z,101650.09
2022-08-24T01:04:29.121Z,101645.59
2022-08-24T01:09:54.273Z,101648.69
2022-08-24T01:15:16.673Z,101649.22
2022-08-24T01:20:39.959Z,101657.06
2022-08-24T01:26:02.421Z,101642.50
2022-08-24T01:31:25.534Z,101650.03
2022-08-24T01:36:51.252Z,101652.84
2022-08-24T01:42:14.580Z,101648.34
2022-08-24T01:47:38.088Z,101641.59
2022-08-24T01:53:14.588Z,101636.59
2022-08-24T01:58:36.444Z,101634.91
2022-08-24T02:04:02.998Z,101640.72
2022-08-24T02:09:25.673Z,101636.00
2022-08-24T02:14:53.341Z,101646.31
2022-08-24T02:20:16.209Z,101643.81
2022-08-24T02:25:38.441Z,101651.09
2022-08-24T02:31:01.064Z,101649.41
2022-08-24T02:36:26.041Z,101650.50
2022-08-24T02:41:49.401Z,101659.47
2022-08-24T02:47:11.350Z,101664.50
2022-08-24T02:52:33.168Z,101658.91
2022-08-24T02:57:54.915Z,101657.22
2022-08-24T03:03:16.638Z,101655.53
2022-08-24T03:08:39.036Z,101666.69
2022-08-24T03:14:01.824Z,101647.13
2022-08-24T03:19:24.009Z,101646.56
2022-08-24T03:24:45.715Z,101644.88
2022-08-24T03:30:10.682Z,101646.81
2022-08-24T03:35:34.248Z,101638.44
2022-08-24T03:40:56.532Z,101644.88
2022-08-24T03:46:21.856Z,101644.88
2022-08-24T03:51:43.878Z,101643.22
2022-08-24T03:57:05.737Z,101644.88
2022-08-24T04:02:32.366Z,101642.06
2022-08-24T04:07:54.706Z,101646.81
2022-08-24T04:13:17.518Z,101646.00
2022-08-24T04:18:40.626Z,101647.66
2022-08-24T04:24:04.000Z,101658.00
2022-08-24T04:29:25.734Z,101665.56
2022-08-24T04:34:47.468Z,101657.19
2022-08-24T04:40:09.751Z,101659.97
2022-08-24T04:45:32.614Z,101651.00
2022-08-24T04:50:54.365Z,101660.50
2022-08-24T04:56:23.402Z,101668.63
2022-08-24T05:01:45.561Z,101670.81
2022-08-24T05:07:07.360Z,101671.69
2022-08-24T05:12:29.193Z,101675.59
2022-08-24T05:17:51.444Z,101681.19
2022-08-24T05:23:14.026Z,101682.00
2022-08-24T05:28:35.920Z,101686.75
2022-08-24T05:33:59.656Z,101683.97
2022-08-24T05:39:21.551Z,101681.19
2022-08-24T05:44:43.326Z,101687.34
2022-08-24T05:50:06.638Z,101686.75
2022-08-24T05:55:30.680Z,101687.34
2022-08-24T06:00:52.429Z,101677.28
2022-08-24T06:06:15.951Z,101690.66
2022-08-24T06:11:39.890Z,101693.16
2022-08-24T06:17:04.225Z,101703.75
2022-08-24T06:22:26.000Z,101710.72
2022-08-24T06:27:48.092Z,101707.38
2022-08-24T06:33:10.604Z,101714.06
2022-08-24T06:38:32.513Z,101717.22
2022-08-24T06:43:55.092Z,101709.66
2022-08-24T06:49:16.789Z,101716.94
2022-08-24T06:54:39.145Z,101716.94
2022-08-24T07:00:00.888Z,101707.72
2022-08-24T07:05:22.693Z,101707.44
2022-08-24T07:10:46.069Z,101715.81
2022-08-24T07:16:07.916Z,101720.31
2022-08-24T07:21:30.676Z,101718.34
2022-08-24T07:26:53.130Z,101724.78
2022-08-24T07:32:14.829Z,101726.47
2022-08-24T07:37:41.379Z,101724.50
2022-08-24T07:43:03.780Z,101734.88
2022-08-24T07:48:26.095Z,101739.59
2022-08-24T07:53:53.832Z,101730.97
2022-08-24T07:59:17.560Z,101739.34
2022-08-24T08:04:40.141Z,101740.19
2022-08-24T08:10:02.797Z,101739.06
2022-08-24T08:15:26.118Z,101741.03
2022-08-24T08:20:49.049Z,101743.84
2022-08-24T08:26:20.510Z,101746.34
2022-08-24T08:31:42.541Z,101751.09
2022-08-24T08:37:04.532Z,101741.88
2022-08-24T08:42:57.176Z,101741.59
2022-08-24T08:48:47.642Z,101745.25
2022-08-24T08:54:34.071Z,101751.94
2022-08-24T08:59:58.550Z,101746.34
2022-08-24T09:05:58.051Z,101751.94
2022-08-24T09:11:57.173Z,101756.69
2022-08-24T09:17:30.948Z,101759.47
2022-08-24T09:23:11.593Z,101759.47
2022-08-24T09:29:15.402Z,101755.03
2022-08-24T09:34:50.922Z,101761.16
2022-08-24T09:40:43.655Z,101756.69
2022-08-24T09:46:40.371Z,101753.88
2022-08-24T09:52:39.510Z,101753.88
2022-08-24T09:58:18.830Z,101745.50
2022-08-24T10:04:06.137Z,101754.75
2022-08-24T10:10:09.903Z,101747.19
2022-08-24T10:15:46.346Z,101742.69
2022-08-24T10:21:29.567Z,101736.00
2022-08-24T10:26:57.187Z,101730.41
2022-08-24T10:32:57.603Z,101729.88
2022-08-24T10:39:02.557Z,101724.81
2022-08-24T10:44:50.121Z,101720.94
2022-08-24T10:50:31.278Z,101717.03
2022-08-24T10:56:39.665Z,101715.59
2022-08-24T11:02:11.922Z,101715.88
2022-08-24T11:07:35.610Z,101698.56
2022-08-24T11:13:18.934Z,101700.25
2022-08-24T11:18:53.749Z,101695.53
2022-08-24T11:24:18.232Z,101688.25
2022-08-24T11:29:51.981Z,101678.47
2022-08-24T11:35:32.035Z,101674.56
2022-08-24T11:41:19.578Z,101674.84
2022-08-24T11:46:53.708Z,101671.78
2022-08-24T11:52:53.819Z,101661.16
2022-08-24T11:58:46.893Z,101662.91
2022-08-24T12:04:33.037Z,101635.25
2022-08-24T12:10:32.726Z,101637.81
2022-08-24T12:16:12.773Z,101639.56
2022-08-24T12:21:39.301Z,101628.41
2022-08-24T12:27:13.413Z,101622.84
2022-08-24T12:32:47.990Z,101632.09
2022-08-24T12:38:19.486Z,101621.19
2022-08-24T12:44:05.508Z,101622.34
2022-08-24T12:49:36.566Z,101616.81
2022-08-24T12:55:31.179Z,101612.91
2022-08-24T13:00:53.101Z,101611.78
2022-08-24T13:06:25.941Z,101610.69
2022-08-24T13:11:48.657Z,101602.28
2022-08-24T13:17:13.374Z,101594.19
2022-08-24T13:22:46.862Z,101595.84
2022-08-24T13:28:20.827Z,101597.88
2022-08-24T13:33:57.841Z,101595.63
2022-08-24T13:39:38.166Z,101592.84
2022-08-24T13:45:18.085Z,101591.44
2022-08-24T13:51:05.674Z,101584.19
2022-08-24T13:56:47.920Z,101575.50
2022-08-24T14:02:16.118Z,101566.28
2022-08-24T14:07:54.295Z,101576.38
2022-08-24T14:13:45.208Z,101573.28
2022-08-24T14:19:21.103Z,101558.47
2022-08-24T14:24:46.441Z,101565.44
2022-08-24T14:30:20.302Z,101557.63
2022-08-24T14:35:41.995Z,101556.78
2022-08-24T14:41:22.605Z,101556.50
2022-08-24T14:47:07.223Z,101542.50
2022-08-24T14:52:50.756Z,101550.34
2022-08-24T14:58:41.704Z,101550.63
2022-08-24T15:04:36.124Z,101545.03
2022-08-24T15:10:01.463Z,101535.22
2022-08-24T15:15:34.126Z,101532.44
2022-08-24T15:21:07.958Z,101529.63
2022-08-24T15:27:00.937Z,101526.25
2022-08-24T15:32:44.387Z,101518.69
2022-08-24T15:38:20.299Z,101525.69
2022-08-24T15:44:00.131Z,101523.44
2022-08-24T15:49:29.701Z,101519.53
2022-08-24T15:55:01.455Z,101516.72
2022-08-24T16:00:54.633Z,101516.47
2022-08-24T16:06:18.455Z,101513.94
2022-08-24T16:12:02.374Z,101510.00
2022-08-24T16:17:30.683Z,101503.59
2022-08-24T16:23:00.735Z,101510.00
2022-08-24T16:28:22.645Z,101504.97
2022-08-24T16:33:47.338Z,101506.09
2022-08-24T16:39:11.873Z,101505.53
2022-08-24T16:44:37.038Z,101510.28
2022-08-24T16:49:58.964Z,101507.72
2022-08-24T16:55:21.282Z,101512.44
2022-08-24T17:00:45.934Z,101513.00
2022-08-24T17:06:07.865Z,101512.44
2022-08-24T17:11:29.939Z,101509.66
2022-08-24T17:16:51.807Z,101506.56
2022-08-24T17:22:16.399Z,101512.72
2022-08-24T17:27:38.457Z,101503.78
2022-08-24T17:33:00.208Z,101499.88
2022-08-24T17:38:22.271Z,101507.13
2022-08-24T17:43:44.155Z,101509.69
2022-08-24T17:49:07.467Z,101516.38
2022-08-24T17:54:29.275Z,101519.19
2022-08-24T17:59:50.987Z,101525.59
2022-08-24T18:05:14.576Z,101523.09
2022-08-24T18:10:36.530Z,101529.53
2022-08-24T18:15:58.672Z,101533.72
2022-08-24T18:21:21.405Z,101543.50
2022-08-24T18:26:47.954Z,101537.06
2022-08-24T18:32:11.768Z,101541.53
2022-08-24T18:37:33.530Z,101544.59
2022-08-24T18:42:56.773Z,101549.06
2022-08-24T18:48:21.761Z,101550.72
2022-08-24T18:53:43.554Z,101559.13
2022-08-24T18:59:05.992Z,101562.44
2022-08-24T19:04:32.194Z,101559.06
2022-08-24T19:09:55.535Z,101561.88
2022-08-24T19:15:32.211Z,101569.72
2022-08-24T19:21:00.180Z,101575.31
2022-08-24T19:26:21.908Z,101573.34
2022-08-24T19:31:43.640Z,101572.47
2022-08-24T19:37:05.631Z,101568.56
2022-08-24T19:42:27.542Z,101573.06
2022-08-24T19:47:49.263Z,101570.56
2022-08-24T19:53:11.283Z,101563.56
2022-08-24T19:58:38.950Z,101569.47
2022-08-24T20:04:09.474Z,101567.50
2022-08-24T20:09:33.284Z,101563.03
2022-08-24T20:14:54.948Z,101569.47
2022-08-24T20:20:19.841Z,101572.00
2022-08-24T20:25:41.900Z,101575.06
2022-08-24T20:31:03.681Z,101568.38
2022-08-24T20:36:37.433Z,101571.16
2022-08-24T20:41:59.151Z,101561.91
2022-08-24T20:47:22.083Z,101566.41
2022-08-24T20:52:43.825Z,101572.00
2022-08-24T20:58:05.633Z,101565.56
2022-08-24T21:03:27.471Z,101568.38
2022-08-24T21:08:53.549Z,101572.00
2022-08-24T21:14:15.298Z,101571.16
2022-08-24T21:19:37.000Z,101564.72
2022-08-24T21:24:58.698Z,101567.78
2022-08-24T21:30:22.327Z,101559.41
2022-08-24T21:35:44.476Z,101566.69
2022-08-24T21:41:07.074Z,101567.22
2022-08-24T21:46:32.730Z,101571.72
2022-08-24T21:51:54.557Z,101580.97
2022-08-24T21:57:16.361Z,101574.78
2022-08-24T22:02:39.141Z,101568.38
2022-08-24T22:08:01.018Z,101575.91
2022-08-24T22:13:22.781Z,101572.28
2022-08-24T22:18:45.146Z,101558.28
2022-08-24T22:24:07.297Z,101557.44
2022-08-24T22:29:29.138Z,101556.59
2022-08-24T22:34:51.714Z,101550.16
2022-08-24T22:40:13.601Z,101548.47
2022-08-24T22:45:35.474Z,101531.69
2022-08-24T22:50:57.192Z,101539.50
2022-08-24T22:56:22.248Z,101534.75
2022-08-24T23:01:46.004Z,101534.75
2022-08-24T23:07:08.261Z,101534.75
2022-08-24T23:12:30.002Z,101530.56
2022-08-24T23:17:51.681Z,101532.25
2022-08-24T23:23:13.403Z,101525.78
2022-08-24T23:28:35.110Z,101519.38
2022-08-24T23:33:58.096Z,101512.09
2022-08-24T23:39:21.310Z,101516.81
2022-08-24T23:44:43.018Z,101512.09
2022-08-24T23:50:06.749Z,101509.28
2022-08-24T23:55:32.437Z,101516.81
